createdAt,value
2022-09-13T00:00:56.106Z,15.70
2022-09-13T00:03:25.631Z,15.60
2022-09-13T00:05:53.890Z,15.50
2022-09-13T00:08:22.029Z,15.50
2022-09-13T00:10:50.385Z,15.50
2022-09-13T00:13:19.183Z,15.60
2022-09-13T00:15:51.088Z,15.60
2022-09-13T00:18:20.147Z,15.70
2022-09-13T00:20:49.411Z,15.70
2022-09-13T00:23:17.372Z,15.70
2022-09-13T00:25:45.328Z,15.70
2022-09-13T00:28:13.297Z,15.70
2022-09-13T00:30:41.257Z,15.70
2022-09-13T00:33:09.221Z,15.60
2022-09-13T00:35:37.182Z,15.60
2022-09-13T00:38:07.046Z,15.60
2022-09-13T00:40:39.089Z,15.50
2022-09-13T00:43:13.808Z,15.50
2022-09-13T00:45:41.918Z,15.50
2022-09-13T00:48:18.309Z,15.40
2022-09-13T00:50:49.166Z,15.40
2022-09-13T00:53:25.103Z,15.40
2022-09-13T00:55:58.661Z,15.50
2022-09-13T00:58:30.704Z,15.60
2022-09-13T01:01:00.223Z,15.40
2022-09-13T01:03:32.737Z,15.40
2022-09-13T01:06:06.935Z,15.30
2022-09-13T01:08:37.581Z,15.30
2022-09-13T01:11:13.263Z,15.40
2022-09-13T01:13:42.657Z,15.40
2022-09-13T01:16:10.780Z,15.50
2022-09-13T01:18:38.820Z,15.40
2022-09-13T01:21:44.061Z,15.40
2022-09-13T01:24:52.881Z,15.30
2022-09-13T01:27:43.194Z,15.20
2022-09-13T01:30:19.540Z,15.40
2022-09-13T01:33:17.212Z,15.30
2022-09-13T01:36:03.001Z,15.10
2022-09-13T01:38:49.484Z,15.10
2022-09-13T01:41:37.141Z,15.20
2022-09-13T01:44:21.660Z,15.10
2022-09-13T01:47:02.267Z,15.20
2022-09-13T01:49:36.116Z,15.20
2022-09-13T01:52:09.814Z,15.30
2022-09-13T01:54:49.174Z,15.20
2022-09-13T01:57:24.097Z,15.30
2022-09-13T01:59:55.356Z,15.20
2022-09-13T02:02:30.475Z,15.00
2022-09-13T02:05:06.124Z,14.90
2022-09-13T02:07:40.743Z,15.00
2022-09-13T02:10:15.838Z,15.10
2022-09-13T02:12:45.222Z,15.10
2022-09-13T02:15:19.707Z,15.00
2022-09-13T02:17:56.170Z,15.00
2022-09-13T02:20:30.893Z,15.00
2022-09-13T02:23:03.915Z,15.00
2022-09-13T02:25:34.976Z,15.00
2022-09-13T02:28:07.694Z,15.00
2022-09-13T02:30:40.201Z,14.90
2022-09-13T02:33:17.215Z,15.10
2022-09-13T02:35:52.592Z,14.90
2022-09-13T02:38:27.202Z,15.00
2022-09-13T02:41:01.759Z,15.10
2022-09-13T02:43:37.852Z,15.10
2022-09-13T02:46:22.734Z,15.10
2022-09-13T02:49:01.497Z,15.10
2022-09-13T02:51:39.891Z,15.20
2022-09-13T02:54:24.161Z,15.20
2022-09-13T02:56:59.966Z,15.20
2022-09-13T02:59:28.440Z,15.30
2022-09-13T03:02:01.268Z,15.10
2022-09-13T03:04:30.829Z,15.20
2022-09-13T03:06:58.839Z,15.20
2022-09-13T03:09:27.251Z,15.20
2022-09-13T03:12:16.127Z,15.30
2022-09-13T03:14:51.014Z,15.40
2022-09-13T03:17:39.381Z,15.40
2022-09-13T03:20:19.153Z,15.30
2022-09-13T03:23:15.853Z,15.40
2022-09-13T03:26:14.344Z,15.30
2022-09-13T03:28:54.735Z,15.40
2022-09-13T03:31:32.386Z,15.30
2022-09-13T03:34:08.560Z,15.40
2022-09-13T03:36:43.892Z,15.30
2022-09-13T03:39:19.685Z,15.40
2022-09-13T03:41:54.874Z,15.20
2022-09-13T03:44:26.732Z,15.20
2022-09-13T03:46:58.933Z,15.20
2022-09-13T03:49:28.532Z,15.30
2022-09-13T03:51:59.111Z,15.40
2022-09-13T03:54:31.406Z,15.30
2022-09-13T03:57:14.132Z,15.20
2022-09-13T03:59:46.405Z,15.20
2022-09-13T04:02:15.308Z,15.10
2022-09-13T04:04:46.294Z,15.00
2022-09-13T04:07:18.019Z,15.10
2022-09-13T04:09:46.833Z,15.10
2022-09-13T04:12:15.410Z,15.00
2022-09-13T04:14:44.528Z,15.00
2022-09-13T04:17:13.503Z,14.90
2022-09-13T04:19:42.083Z,14.80
2022-09-13T04:22:10.106Z,14.80
2022-09-13T04:24:39.976Z,14.90
2022-09-13T04:27:10.965Z,15.10
2022-09-13T04:29:38.967Z,15.20
2022-09-13T04:32:07.393Z,15.30
2022-09-13T04:34:35.335Z,15.30
2022-09-13T04:37:03.490Z,15.30
2022-09-13T04:39:31.422Z,15.20
2022-09-13T04:42:02.164Z,15.20
2022-09-13T04:44:30.119Z,15.00
2022-09-13T04:46:58.087Z,15.10
2022-09-13T04:49:26.146Z,15.10
2022-09-13T04:51:54.133Z,15.10
2022-09-13T04:54:22.234Z,15.10
2022-09-13T04:56:50.351Z,15.10
2022-09-13T04:59:19.682Z,15.20
2022-09-13T05:01:47.743Z,15.10
2022-09-13T05:04:15.932Z,15.20
2022-09-13T05:06:44.414Z,15.20
2022-09-13T05:09:15.558Z,15.10
2022-09-13T05:11:43.693Z,15.20
2022-09-13T05:14:13.261Z,15.10
2022-09-13T05:16:42.662Z,15.20
2022-09-13T05:19:11.785Z,15.30
2022-09-13T05:21:39.933Z,15.30
2022-09-13T05:24:08.396Z,15.20
2022-09-13T05:26:36.676Z,15.20
2022-09-13T05:29:06.327Z,15.40
2022-09-13T05:31:36.777Z,15.50
2022-09-13T05:34:11.452Z,15.50
2022-09-13T05:36:40.017Z,15.40
2022-09-13T05:39:34.047Z,15.40
2022-09-13T05:41:59.235Z,15.40
2022-09-13T05:44:27.391Z,15.40
2022-09-13T05:46:55.381Z,15.40
2022-09-13T05:49:24.767Z,15.40
2022-09-13T05:51:52.797Z,15.40
2022-09-13T05:54:20.759Z,15.50
2022-09-13T05:56:48.794Z,15.40
2022-09-13T05:59:16.894Z,15.40
2022-09-13T06:01:45.194Z,15.30
2022-09-13T06:04:13.227Z,15.40
2022-09-13T06:06:42.538Z,15.50
2022-09-13T06:09:13.718Z,15.60
2022-09-13T06:11:42.087Z,15.60
2022-09-13T06:14:11.140Z,15.70
2022-09-13T06:16:39.139Z,15.90
2022-09-13T06:19:07.153Z,16.00
2022-09-13T06:21:35.166Z,16.20
2022-09-13T06:24:05.189Z,16.20
2022-09-13T06:26:35.083Z,16.20
2022-09-13T06:29:03.026Z,16.30
2022-09-13T06:31:31.087Z,16.20
2022-09-13T06:34:02.248Z,16.20
2022-09-13T06:36:31.115Z,16.20
2022-09-13T06:39:00.609Z,16.30
2022-09-13T06:41:30.180Z,16.40
2022-09-13T06:44:01.410Z,16.40
2022-09-13T06:46:31.765Z,16.40
2022-09-13T06:49:02.017Z,16.40
2022-09-13T06:51:30.947Z,16.60
2022-09-13T06:53:59.584Z,16.70
2022-09-13T06:56:32.386Z,16.80
2022-09-13T06:59:04.777Z,16.60
2022-09-13T07:01:35.425Z,16.70
2022-09-13T07:04:06.051Z,16.80
2022-09-13T07:06:36.479Z,16.90
2022-09-13T07:09:07.555Z,17.00
2022-09-13T07:11:40.075Z,17.10
2022-09-13T07:14:08.995Z,17.00
2022-09-13T07:16:39.103Z,17.10
2022-09-13T07:19:10.537Z,17.10
2022-09-13T07:21:38.480Z,17.20
2022-09-13T07:24:07.101Z,17.20
2022-09-13T07:26:36.899Z,17.20
2022-09-13T07:29:08.290Z,17.10
2022-09-13T07:31:39.209Z,17.10
2022-09-13T07:34:09.548Z,17.00
2022-09-13T07:36:37.888Z,17.00
2022-09-13T07:39:09.864Z,16.80
2022-09-13T07:41:41.692Z,16.70
2022-09-13T07:44:11.690Z,16.90
2022-09-13T07:46:43.390Z,16.90
2022-09-13T07:49:13.543Z,16.90
2022-09-13T07:51:44.171Z,17.00
2022-09-13T07:54:14.589Z,17.00
2022-09-13T07:56:44.411Z,17.10
2022-09-13T07:59:15.437Z,17.20
2022-09-13T08:01:45.016Z,17.20
2022-09-13T08:04:15.254Z,17.30
2022-09-13T08:06:44.578Z,17.40
2022-09-13T08:09:13.170Z,17.50
2022-09-13T08:11:44.810Z,17.60
2022-09-13T08:14:15.727Z,17.80
2022-09-13T08:16:44.154Z,18.00
2022-09-13T08:19:15.187Z,18.20
2022-09-13T08:21:44.285Z,18.30
2022-09-13T08:24:16.740Z,18.40
2022-09-13T08:26:47.529Z,18.70
2022-09-13T08:29:17.022Z,18.70
2022-09-13T08:31:45.705Z,18.80
2022-09-13T08:34:15.985Z,18.90
2022-09-13T08:36:44.925Z,19.00
2022-09-13T08:39:14.134Z,19.00
2022-09-13T08:42:22.008Z,18.80
2022-09-13T08:44:54.458Z,18.80
2022-09-13T08:47:36.584Z,18.90
2022-09-13T08:50:19.567Z,18.80
2022-09-13T08:53:03.120Z,18.70
2022-09-13T08:55:43.858Z,18.60
2022-09-13T08:58:34.338Z,18.50
2022-09-13T09:01:09.096Z,18.40
2022-09-13T09:03:46.793Z,18.40
2022-09-13T09:06:17.735Z,18.30
2022-09-13T09:08:50.181Z,18.20
2022-09-13T09:11:30.232Z,18.20
2022-09-13T09:14:07.320Z,18.30
2022-09-13T09:16:41.298Z,18.30
2022-09-13T09:19:21.887Z,18.10
2022-09-13T09:21:52.263Z,18.20
2022-09-13T09:24:24.757Z,18.20
2022-09-13T09:26:55.139Z,18.10
2022-09-13T09:29:28.078Z,18.00
2022-09-13T09:32:09.542Z,18.10
2022-09-13T09:34:52.342Z,18.10
2022-09-13T09:37:24.255Z,18.10
2022-09-13T09:39:54.649Z,18.10
2022-09-13T09:42:28.556Z,18.10
2022-09-13T09:45:02.699Z,18.10
2022-09-13T09:47:35.547Z,17.90
2022-09-13T09:50:10.927Z,17.80
2022-09-13T09:52:45.493Z,17.90
2022-09-13T09:55:27.052Z,17.80
2022-09-13T09:57:58.803Z,17.60
2022-09-13T10:00:31.356Z,17.70
2022-09-13T10:03:02.352Z,17.70
2022-09-13T10:05:32.370Z,17.70
2022-09-13T10:08:03.886Z,17.70
2022-09-13T10:10:42.645Z,17.70
2022-09-13T10:13:18.062Z,17.80
2022-09-13T10:15:58.872Z,17.70
2022-09-13T10:18:45.086Z,17.70
2022-09-13T10:21:25.788Z,17.70
2022-09-13T10:24:17.802Z,17.90
2022-09-13T10:26:46.707Z,18.00
2022-09-13T10:29:17.734Z,18.00
2022-09-13T10:31:53.567Z,18.10
2022-09-13T10:34:25.259Z,18.10
2022-09-13T10:36:58.422Z,18.20
2022-09-13T10:39:29.535Z,18.20
2022-09-13T10:42:01.129Z,18.30
2022-09-13T10:44:35.214Z,18.50
2022-09-13T10:47:11.837Z,18.70
2022-09-13T10:49:47.143Z,18.90
2022-09-13T10:52:32.060Z,19.00
2022-09-13T10:55:25.696Z,19.10
2022-09-13T10:57:55.668Z,19.30
2022-09-13T11:00:31.154Z,19.40
2022-09-13T11:03:21.221Z,19.40
2022-09-13T11:05:56.683Z,19.60
2022-09-13T11:08:41.434Z,19.70
2022-09-13T11:11:18.427Z,19.60
2022-09-13T11:14:08.841Z,19.60
2022-09-13T11:16:54.290Z,19.50
2022-09-13T11:20:06.267Z,19.60
2022-09-13T11:23:07.636Z,19.70
2022-09-13T11:25:52.654Z,19.70
2022-09-13T11:28:35.846Z,19.60
2022-09-13T11:31:26.006Z,19.70
2022-09-13T11:34:11.878Z,19.80
2022-09-13T11:37:20.726Z,19.70
2022-09-13T11:40:00.035Z,19.80
2022-09-13T11:42:44.541Z,19.60
2022-09-13T11:45:26.120Z,19.60
2022-09-13T11:48:15.930Z,19.40
2022-09-13T11:50:59.222Z,19.50
2022-09-13T11:54:02.124Z,19.50
2022-09-13T11:56:35.503Z,19.80
2022-09-13T11:59:19.316Z,19.90
2022-09-13T12:01:53.044Z,19.90
2022-09-13T12:04:30.541Z,20.20
2022-09-13T12:07:04.752Z,20.20
2022-09-13T12:09:39.769Z,20.30
2022-09-13T12:12:11.195Z,20.20
2022-09-13T12:14:45.334Z,20.20
2022-09-13T12:17:26.424Z,20.20
2022-09-13T12:20:00.127Z,20.20
2022-09-13T12:22:33.724Z,20.50
2022-09-13T12:25:08.304Z,20.60
2022-09-13T12:27:42.820Z,20.60
2022-09-13T12:30:17.718Z,20.70
2022-09-13T12:32:47.465Z,20.70
2022-09-13T12:35:26.115Z,20.70
2022-09-13T12:38:19.147Z,20.50
2022-09-13T12:41:07.744Z,20.60
2022-09-13T12:44:11.758Z,20.50
2022-09-13T12:47:13.633Z,20.60
2022-09-13T12:50:21.562Z,20.60
2022-09-13T12:53:10.772Z,20.60
2022-09-13T12:56:05.035Z,20.60
2022-09-13T12:59:05.451Z,20.60
2022-09-13T13:01:34.448Z,20.80
2022-09-13T13:04:09.823Z,20.80
2022-09-13T13:06:49.836Z,20.90
2022-09-13T13:09:34.579Z,20.90
2022-09-13T13:12:04.562Z,20.90
2022-09-13T13:14:53.503Z,20.80
2022-09-13T13:17:46.325Z,20.80
2022-09-13T13:20:42.725Z,21.00
2022-09-13T13:23:26.875Z,20.90
2022-09-13T13:26:13.286Z,21.00
2022-09-13T13:29:16.358Z,21.20
2022-09-13T13:32:03.890Z,21.20
2022-09-13T13:34:39.541Z,21.20
2022-09-13T13:37:29.511Z,21.20
2022-09-13T13:40:30.119Z,21.10
2022-09-13T13:43:30.730Z,21.20
2022-09-13T13:46:28.749Z,21.30
2022-09-13T13:48:57.635Z,21.30
2022-09-13T13:51:28.699Z,21.40
2022-09-13T13:54:26.079Z,21.40
2022-09-13T13:56:54.596Z,21.50
2022-09-13T13:59:28.490Z,21.40
2022-09-13T14:02:01.712Z,21.40
2022-09-13T14:05:07.436Z,21.20
2022-09-13T14:08:25.368Z,21.30
2022-09-13T14:11:02.103Z,21.30
2022-09-13T14:13:47.153Z,21.30
2022-09-13T14:16:33.124Z,21.30
2022-09-13T14:19:24.163Z,21.30
2022-09-13T14:22:14.523Z,21.40
2022-09-13T14:24:46.237Z,21.40
2022-09-13T14:27:19.367Z,21.40
2022-09-13T14:29:50.437Z,21.30
2022-09-13T14:32:23.157Z,21.20
2022-09-13T14:35:02.004Z,21.10
2022-09-13T14:37:33.355Z,21.00
2022-09-13T14:40:07.438Z,21.20
2022-09-13T14:42:45.464Z,21.40
2022-09-13T14:45:15.440Z,21.30
2022-09-13T14:47:53.541Z,21.30
2022-09-13T14:50:28.308Z,21.30
2022-09-13T14:52:59.167Z,21.30
2022-09-13T14:55:32.764Z,21.20
2022-09-13T14:58:04.275Z,21.20
2022-09-13T15:00:37.671Z,21.20
2022-09-13T15:03:13.913Z,21.20
2022-09-13T15:05:43.448Z,21.20
2022-09-13T15:08:46.573Z,21.20
2022-09-13T15:11:27.712Z,21.30
2022-09-13T15:14:04.398Z,21.10
2022-09-13T15:16:33.552Z,21.10
2022-09-13T15:19:32.829Z,21.00
2022-09-13T15:22:13.095Z,20.80
2022-09-13T15:24:47.242Z,20.90
2022-09-13T15:27:26.493Z,20.80
2022-09-13T15:29:57.299Z,20.80
2022-09-13T15:32:32.913Z,20.80
2022-09-13T15:35:03.510Z,20.80
2022-09-13T15:37:36.890Z,20.70
2022-09-13T15:40:20.894Z,20.80
2022-09-13T15:42:51.011Z,20.80
2022-09-13T15:45:20.878Z,20.80
2022-09-13T15:47:50.866Z,20.80
2022-09-13T15:50:26.969Z,20.80
2022-09-13T15:52:56.837Z,20.90
2022-09-13T15:55:25.485Z,20.90
2022-09-13T15:57:53.705Z,20.90
2022-09-13T16:00:26.984Z,20.90
2022-09-13T16:02:55.172Z,20.80
2022-09-13T16:05:23.172Z,20.90
2022-09-13T16:07:51.717Z,21.00
2022-09-13T16:10:23.359Z,21.10
2022-09-13T16:12:51.444Z,21.00
2022-09-13T16:15:19.671Z,20.90
2022-09-13T16:17:48.270Z,21.10
2022-09-13T16:20:16.994Z,21.10
2022-09-13T16:22:44.991Z,21.10
2022-09-13T16:25:14.104Z,21.10
2022-09-13T16:27:44.717Z,21.00
2022-09-13T16:30:16.851Z,20.80
2022-09-13T16:32:45.016Z,20.80
2022-09-13T16:35:15.775Z,20.80
2022-09-13T16:37:44.421Z,20.80
2022-09-13T16:40:13.552Z,20.80
2022-09-13T16:42:43.298Z,20.90
2022-09-13T16:45:12.502Z,20.70
2022-09-13T16:47:42.173Z,20.70
2022-09-13T16:50:11.134Z,20.70
2022-09-13T16:52:39.532Z,20.60
2022-09-13T16:55:08.628Z,20.40
2022-09-13T16:57:37.104Z,20.50
2022-09-13T17:00:11.371Z,20.50
2022-09-13T17:02:39.814Z,20.30
2022-09-13T17:05:08.529Z,20.20
2022-09-13T17:07:36.981Z,20.20
2022-09-13T17:10:07.027Z,20.20
2022-09-13T17:12:35.852Z,20.20
2022-09-13T17:15:06.317Z,20.00
2022-09-13T17:17:36.254Z,20.00
2022-09-13T17:20:07.819Z,19.90
2022-09-13T17:22:36.611Z,19.80
2022-09-13T17:25:07.569Z,19.70
2022-09-13T17:27:35.713Z,19.70
2022-09-13T17:30:05.663Z,19.70
2022-09-13T17:32:35.021Z,19.60
2022-09-13T17:35:03.034Z,19.50
2022-09-13T17:37:31.114Z,19.50
2022-09-13T17:39:59.108Z,19.40
2022-09-13T17:42:27.117Z,19.30
2022-09-13T17:44:55.095Z,19.10
2022-09-13T17:47:23.060Z,19.10
2022-09-13T17:49:52.332Z,19.10
2022-09-13T17:52:20.311Z,19.00
2022-09-13T17:54:50.129Z,18.90
2022-09-13T17:57:18.077Z,18.80
2022-09-13T17:59:47.279Z,18.70
2022-09-13T18:02:15.270Z,18.40
2022-09-13T18:04:43.317Z,18.30
2022-09-13T18:07:12.653Z,18.20
2022-09-13T18:09:41.334Z,18.10
2022-09-13T18:12:09.360Z,18.10
2022-09-13T18:14:37.527Z,18.10
2022-09-13T18:17:13.024Z,18.10
2022-09-13T18:19:46.265Z,18.10
2022-09-13T18:22:16.354Z,18.00
2022-09-13T18:24:44.591Z,18.10
2022-09-13T18:27:12.660Z,18.10
2022-09-13T18:29:40.620Z,18.20
2022-09-13T18:32:08.658Z,18.40
2022-09-13T18:34:36.688Z,18.30
2022-09-13T18:37:05.204Z,18.20
2022-09-13T18:39:34.494Z,18.30
2022-09-13T18:42:02.552Z,18.40
2022-09-13T18:44:30.707Z,18.50
2022-09-13T18:47:00.495Z,18.50
2022-09-13T18:49:28.554Z,18.50
2022-09-13T18:51:56.524Z,18.50
2022-09-13T18:54:24.544Z,18.60
2022-09-13T18:56:55.814Z,18.50
2022-09-13T18:59:23.792Z,18.50
2022-09-13T19:01:51.880Z,18.50
2022-09-13T19:04:21.685Z,18.60
2022-09-13T19:06:51.806Z,18.60
2022-09-13T19:09:22.593Z,18.50
2022-09-13T19:11:54.256Z,18.50
2022-09-13T19:14:25.449Z,18.50
2022-09-13T19:16:56.333Z,18.60
2022-09-13T19:19:24.946Z,18.60
2022-09-13T19:21:53.068Z,18.60
2022-09-13T19:24:21.695Z,18.60
2022-09-13T19:26:53.121Z,18.70
2022-09-13T19:29:23.383Z,18.70
2022-09-13T19:31:53.152Z,18.70
2022-09-13T19:34:23.403Z,18.70
2022-09-13T19:36:57.365Z,18.70
2022-09-13T19:39:29.146Z,18.70
2022-09-13T19:42:00.876Z,18.70
2022-09-13T19:44:29.254Z,18.70
2022-09-13T19:47:44.904Z,18.70
2022-09-13T19:49:49.658Z,18.70
2022-09-13T19:52:17.887Z,18.80
2022-09-13T19:54:46.032Z,18.80
2022-09-13T19:57:15.457Z,18.80
2022-09-13T19:59:43.421Z,18.80
2022-09-13T20:02:12.025Z,18.90
2022-09-13T20:04:40.068Z,18.90
2022-09-13T20:07:13.258Z,18.80
2022-09-13T20:09:42.279Z,18.80
2022-09-13T20:12:12.558Z,18.70
2022-09-13T20:14:41.956Z,18.80
2022-09-13T20:17:09.938Z,18.70
2022-09-13T20:19:43.847Z,18.70
2022-09-13T20:22:13.153Z,18.80
2022-09-13T20:24:41.249Z,18.90
2022-09-13T20:27:09.534Z,18.90
2022-09-13T20:29:37.580Z,18.90
2022-09-13T20:32:06.916Z,19.00
2022-09-13T20:34:35.144Z,19.00
2022-09-13T20:37:03.173Z,19.00
2022-09-13T20:39:31.141Z,19.00
2022-09-13T20:41:59.121Z,19.00
2022-09-13T20:44:27.421Z,19.10
2022-09-13T20:46:55.406Z,19.00
2022-09-13T20:49:25.658Z,19.00
2022-09-13T20:51:53.740Z,18.90
2022-09-13T20:54:21.937Z,19.00
2022-09-13T20:56:49.909Z,18.90
2022-09-13T20:59:17.951Z,18.90
2022-09-13T21:01:46.062Z,18.80
2022-09-13T21:04:14.042Z,18.90
2022-09-13T21:06:57.850Z,18.80
2022-09-13T21:09:25.919Z,18.70
2022-09-13T21:11:54.225Z,18.70
2022-09-13T21:14:23.291Z,18.70
2022-09-13T21:16:51.329Z,18.70
2022-09-13T21:19:19.801Z,18.80
2022-09-13T21:21:49.374Z,18.70
2022-09-13T21:24:17.595Z,18.80
2022-09-13T21:26:45.815Z,18.80
2022-09-13T21:29:13.922Z,18.70
2022-09-13T21:31:42.867Z,18.80
2022-09-13T21:34:15.855Z,18.90
2022-09-13T21:36:45.138Z,18.90
2022-09-13T21:39:15.072Z,18.90
2022-09-13T21:41:44.381Z,18.90
2022-09-13T21:44:12.706Z,19.00
2022-09-13T21:46:42.339Z,19.00
2022-09-13T21:49:12.993Z,19.00
2022-09-13T21:51:44.264Z,19.00
2022-09-13T21:54:17.116Z,19.10
2022-09-13T21:56:50.435Z,19.10
2022-09-13T21:59:20.604Z,18.90
2022-09-13T22:01:51.362Z,19.00
2022-09-13T22:04:22.177Z,19.10
2022-09-13T22:06:53.437Z,18.90
2022-09-13T22:09:26.696Z,18.70
2022-09-13T22:11:55.500Z,18.70
2022-09-13T22:14:23.745Z,18.70
2022-09-13T22:16:53.507Z,18.70
2022-09-13T22:19:24.774Z,18.70
2022-09-13T22:21:56.587Z,18.70
2022-09-13T22:24:28.039Z,18.70
2022-09-13T22:26:58.087Z,18.70
2022-09-13T22:29:26.570Z,18.70
2022-09-13T22:31:55.048Z,18.80
2022-09-13T22:34:26.016Z,18.70
2022-09-13T22:36:55.925Z,18.80
2022-09-13T22:39:25.320Z,18.70
2022-09-13T22:41:53.372Z,18.80
2022-09-13T22:44:21.404Z,18.80
2022-09-13T22:46:49.398Z,18.60
2022-09-13T22:49:19.123Z,18.70
2022-09-13T22:51:48.598Z,18.60
2022-09-13T22:54:18.784Z,18.60
2022-09-13T22:56:48.638Z,18.50
2022-09-13T22:59:19.006Z,18.60
2022-09-13T23:01:47.448Z,18.70
2022-09-13T23:04:16.141Z,18.70
2022-09-13T23:06:44.764Z,18.70
2022-09-13T23:09:16.693Z,18.60
2022-09-13T23:11:45.485Z,18.60
2022-09-13T23:14:17.293Z,18.70
2022-09-13T23:16:52.055Z,18.70
2022-09-13T23:19:22.397Z,18.70
2022-09-13T23:21:50.376Z,18.70
2022-09-13T23:24:19.663Z,18.60
2022-09-13T23:26:48.262Z,18.70
2022-09-13T23:29:20.470Z,18.80
2022-09-13T23:31:49.571Z,18.90
2022-09-13T23:34:17.874Z,18.90
2022-09-13T23:36:46.672Z,18.90
2022-09-13T23:39:18.295Z,18.80
2022-09-13T23:41:47.825Z,18.80
2022-09-13T23:44:18.090Z,18.80
2022-09-13T23:46:46.614Z,18.70
2022-09-13T23:49:14.615Z,18.60
2022-09-13T23:51:42.756Z,18.70
2022-09-13T23:54:11.230Z,18.60
2022-09-13T23:56:39.175Z,18.50
2022-09-13T23:59:07.724Z,18.50
